Flight Track Log - Related Links

Times and Time Zones

All times are in EDT time to prevent confusion due to time zone crossing. See the WIG7413 flight status page for this flight to view local times or setup timezone preferences in your user account.

Time Position Orientation Groundspeed Altitude Reporting Facility
EDT Latitude Longitude Course Direction KTS MPH feet Rate Location/Type
Wed 10:06:16 PM 42.7447 -73.8039 190° South 75 86 800  Level Boston Center
Wed 10:07:23 PM 42.7200 -73.8100 190° South 84 97 2,100 1,255 Climbing Boston Center
Wed 10:08:06 PM 42.7042 -73.8225 210° Southwest 83 96 3,100 1,200 Climbing Boston Center
Wed 10:08:23 PM 42.6953 -73.8278 204° Southwest 94 108 3,300 923 Climbing Boston Center
Wed 10:09:24 PM 42.6678 -73.8478 208° Southwest 112 129 4,300 1,029 Climbing Boston Center
Wed 10:10:08 PM 42.6497 -73.8653 215° Southwest 114 131 5,100 984 Climbing Boston Center
Wed 10:10:25 PM 42.6394 -73.8731 209° Southwest 127 146 5,300 787 Climbing Boston Center
Wed 10:11:09 PM 42.6189 -73.8894 210° Southwest 123 142 5,900 900 Climbing Boston Center
Wed 10:11:25 PM 42.6072 -73.8969 205° Southwest 129 148 6,200 984 Climbing Boston Center
Wed 10:12:10 PM 42.5847 -73.9147 210° Southwest 126 145 6,900 885 Climbing Boston Center
Wed 10:12:26 PM 42.5750 -73.9208 205° Southwest 133 153 7,100 787 Climbing Boston Center
Wed 10:13:11 PM 42.5525 -73.9392 211° Southwest 130 150 7,700 689 Climbing Boston Center
Wed 10:13:27 PM 42.5419 -73.9475 210° Southwest 136 157 7,800 393 Climbing Boston Center
Wed 10:14:12 PM 42.5167 -73.9672 210° Southwest 142 163 8,100 300 Climbing Boston Center
Wed 10:14:27 PM 42.5067 -73.9761 213° Southwest 154 177 8,100  Level Boston Center
Wed 10:15:13 PM 42.4778 -73.9975 209° Southwest 155 178 8,100  Level Boston Center
Wed 10:15:28 PM 42.4642 -74.0083 210° Southwest 167 192 8,100  Level Boston Center
Wed 10:16:14 PM 42.4344 -74.0289 207° Southwest 162 186 8,100  Level Boston Center
Wed 10:17:15 PM 42.3953 -74.0586 209° Southwest 162 186 8,100  Level Boston Center
Wed 10:18:16 PM 42.3564 -74.0881 209° Southwest 162 186 8,100 -49 Level Boston Center
Wed 10:19:17 PM 42.3161 -74.1192 210° Southwest 162 186 8,000 -49 Descending Boston Center
Wed 10:20:18 PM 42.2767 -74.1489 209° Southwest 162 186 8,000  Level Boston Center
Wed 10:21:19 PM 42.2372 -74.1783 209° Southwest 162 186 8,000  Level Boston Center
Wed 10:22:19 PM 42.1961 -74.1992 201° Southwest 161 185 8,000  Level Boston Center
Wed 10:23:20 PM 42.1522 -74.2172 197° South 162 186 8,000  Level Boston Center
Wed 10:24:21 PM 42.1078 -74.2397 201° Southwest 161 185 8,000  Level Boston Center
Wed 10:25:22 PM 42.0675 -74.2594 200° South 157 181 8,000  Level Boston Center
Wed 10:26:23 PM 42.0261 -74.2797 200° South 157 181 8,000  Level Boston Center
Wed 10:27:24 PM 41.9850 -74.3000 200° South 157 181 8,000  Level Boston Center
Wed 10:28:25 PM 41.9439 -74.3197 200° South 157 181 8,000  Level Boston Center
Wed 10:29:26 PM 41.9000 -74.3414 200° South 157 181 8,000  Level Boston Center
Wed 10:30:27 PM 41.8592 -74.3600 199° South 157 181 8,000  Level Boston Center
Wed 10:31:28 PM 41.8175 -74.3803 200° South 158 182 8,000  Level Boston Center
Wed 10:32:28 PM 41.7772 -74.4008 201° Southwest 159 183 8,000  Level Boston Center
Wed 10:33:29 PM 41.7358 -74.4206 200° South 159 183 8,000  Level Boston Center
Wed 10:34:30 PM 41.6914 -74.4422 200° South 159 183 8,000  Level Boston Center
Wed 10:35:31 PM 41.6514 -74.4617 200° South 157 181 8,000 -344 Level Boston Center
Wed 10:36:32 PM 41.6081 -74.4833 200° South 163 188 7,300 -639 Descending Boston Center
Wed 10:37:33 PM 41.5631 -74.5064 201° Southwest 171 197 6,700 -590 Descending Boston Center
Wed 10:38:34 PM 41.5144 -74.5300 200° South 171 197 6,100 -347 Descending Boston Center
Wed 10:39:34 PM 41.4708 -74.5503 199° South 170 196 6,000 -50 Descending Boston Center
Wed 10:40:35 PM 41.4297 -74.5672 197° South 160 184 6,000  Level Boston Center
Wed 10:41:36 PM 41.3892 -74.5864 200° South 159 183 6,000  Level Boston Center
Wed 10:42:33 PM 41.3500 -74.6000 195° South 156 180 6,000  Level New York TRACON
Wed 10:43:33 PM 41.3167 -74.6333 217° Southwest 157 181 6,000 -200 Level New York TRACON
Wed 10:44:33 PM 41.2667 -74.6333 180° South 164 189 5,600 -550 Descending New York TRACON
Wed 10:45:33 PM 41.2167 -74.6500 194° South 170 196 4,900 -700 Descending New York TRACON
Wed 10:46:33 PM 41.1667 -74.6500 180° South 166 191 4,200 -381 Descending New York TRACON
Wed 10:47:39 PM 41.1167 -74.6500 180° South 157 181 4,100 -48 Descending New York TRACON
Wed 10:48:39 PM 41.1000 -74.6000 114° Southeast 166 191 4,100  Level New York TRACON
Wed 10:49:33 PM 41.0833 -74.5667 124° Southeast 164 189 4,100  Level New York TRACON
Wed 10:50:33 PM 41.0500 -74.5167 131° Southeast 166 191 4,100  Level New York TRACON
Wed 10:51:33 PM 41.0333 -74.4667 114° Southeast 165 190 4,100 -238 Level New York TRACON
Wed 10:52:39 PM 41.0000 -74.4000 124° Southeast 171 197 3,600 -450 Descending New York TRACON
Wed 10:53:33 PM 40.9833 -74.3500 114° Southeast 174 200 3,200 -333 Descending New York TRACON
Wed 10:54:27 PM 40.9667 -74.3000 114° Southeast 171 197 3,000 -53 Descending New York TRACON
Wed 10:55:27 PM 40.9500 -74.2333 108° East 165 190 3,100 48 Climbing New York TRACON
Wed 10:56:33 PM 40.9500 -74.1833 90° East 169 194 3,100  Level New York TRACON
Wed 10:57:27 PM 40.9667 -74.1167 72° East 175 201 3,100  Level New York TRACON
Wed 10:58:33 PM 40.9500 -74.0667 114° Southeast 167 192 3,100  Level New York TRACON
Wed 10:59:27 PM 40.9167 -74.0500 159° South 157 181 3,100  Level New York TRACON
Wed 11:00:33 PM 40.8667 -74.0500 180° South 160 184 3,100 -48 Level New York TRACON
Wed 11:01:33 PM 40.8333 -74.0833 217° Southwest 161 185 3,000 -579 Descending New York TRACON
Wed 11:02:27 PM 40.7833 -74.1000 194° South 173 199 2,000 -950 Descending New York TRACON
Wed 11:03:33 PM 40.7500 -74.1333 217° Southwest 166 191 1,100 -850 Descending New York TRACON
Wed 11:04:27 PM 40.7000 -74.1500 194° South 145 167 300 -889 Descending New York TRACON

Login

Don't have an account? Register now (free) for customized features, flight alerts, and more!